Terminal Aerodrome Forecast
Issued by NWS

Home | Current Version | Previous Version | Text Only | Print | Product List | Glossary On
Versions: 1 2 3 4 5 6 7 8 9 10 11 12 13 14 15 16 17 18
000
FTUS46 KLOX 301128
TAFPMD
TAF
KPMD 301128Z 3012/3112 21006KT P6SM BKN150
     FM301800 24010KT P6SM VCTS SCT050CB BKN100
     FM302300 25016KT P6SM VCTS SCT050CB BKN100
     FM310400 23008KT P6SM SCT040 BKN080=

USA.gov is the U.S. government's official web portal to all federal, state and local government web resources and services.